createdAt,value
2018-09-17T00:00:36.467Z,69.50
2018-09-17T00:03:06.039Z,66.70
2018-09-17T00:05:35.350Z,67.40
2018-09-17T00:08:05.284Z,68.30
2018-09-17T00:10:33.925Z,66.90
2018-09-17T00:13:02.446Z,67.20
2018-09-17T00:15:31.352Z,69.10
2018-09-17T00:17:59.871Z,67.00
2018-09-17T00:20:28.565Z,65.70
2018-09-17T00:22:57.008Z,65.60
2018-09-17T00:25:25.602Z,66.00
2018-09-17T00:27:54.250Z,66.20
2018-09-17T00:30:23.138Z,66.20
2018-09-17T00:32:51.717Z,67.40
2018-09-17T00:35:20.241Z,69.00
2018-09-17T00:37:49.054Z,67.60
2018-09-17T00:40:18.123Z,67.60
2018-09-17T00:42:46.934Z,66.10
2018-09-17T00:45:15.833Z,65.80
2018-09-17T00:47:44.363Z,66.80
2018-09-17T00:50:12.874Z,67.00
2018-09-17T00:52:41.709Z,66.50
2018-09-17T00:55:10.344Z,67.80
2018-09-17T00:57:39.950Z,68.00
2018-09-17T01:00:08.369Z,68.50
2018-09-17T01:02:36.883Z,69.60
2018-09-17T01:05:06.373Z,68.40
2018-09-17T01:07:34.842Z,68.60
2018-09-17T01:10:03.503Z,67.40
2018-09-17T01:12:32.012Z,68.50
2018-09-17T01:15:01.772Z,67.40
2018-09-17T01:17:30.387Z,66.80
2018-09-17T01:19:58.950Z,67.00
2018-09-17T01:22:27.479Z,67.00
2018-09-17T01:24:56.157Z,66.50
2018-09-17T01:27:24.606Z,67.00
2018-09-17T01:29:53.404Z,68.20
2018-09-17T01:32:22.155Z,67.70
2018-09-17T01:34:50.721Z,67.40
2018-09-17T01:37:19.279Z,68.10
2018-09-17T01:39:48.161Z,67.80
2018-09-17T01:42:16.805Z,67.80
2018-09-17T01:44:45.596Z,67.40
2018-09-17T01:47:14.096Z,68.00
2018-09-17T01:49:42.647Z,67.50
2018-09-17T01:52:11.136Z,67.20
2018-09-17T01:54:39.985Z,67.60
2018-09-17T01:57:08.984Z,67.40
2018-09-17T01:59:37.450Z,67.00
2018-09-17T02:02:07.729Z,67.40
2018-09-17T02:04:36.365Z,67.20
2018-09-17T02:07:05.111Z,67.40
2018-09-17T02:09:37.256Z,67.70
2018-09-17T02:12:06.748Z,68.00
2018-09-17T02:14:35.200Z,68.50
2018-09-17T02:17:03.864Z,67.70
2018-09-17T02:19:32.675Z,67.30
2018-09-17T02:22:01.705Z,68.20
2018-09-17T02:24:30.322Z,68.20
2018-09-17T02:26:58.853Z,67.40
2018-09-17T02:29:27.488Z,67.70
2018-09-17T02:31:56.250Z,68.90
2018-09-17T02:34:24.823Z,68.20
2018-09-17T02:36:53.882Z,67.70
2018-09-17T02:39:22.464Z,68.10
2018-09-17T02:41:51.065Z,68.90
2018-09-17T02:44:19.590Z,68.50
2018-09-17T02:46:48.232Z,68.50
2018-09-17T02:49:16.708Z,68.30
2018-09-17T02:51:45.306Z,68.10
2018-09-17T02:54:13.894Z,68.50
2018-09-17T02:56:42.730Z,68.40
2018-09-17T02:59:11.362Z,67.40
2018-09-17T03:01:39.949Z,68.20
2018-09-17T03:04:19.427Z,69.10
2018-09-17T03:06:48.108Z,69.30
2018-09-17T03:09:16.700Z,68.60
2018-09-17T03:11:45.375Z,68.30
2018-09-17T03:14:14.005Z,68.40
2018-09-17T03:16:53.706Z,68.90
2018-09-17T03:19:22.356Z,68.50
2018-09-17T03:21:51.072Z,68.60
2018-09-17T03:24:19.782Z,68.90
2018-09-17T03:26:48.440Z,68.50
2018-09-17T03:29:16.950Z,68.60
2018-09-17T03:31:45.665Z,68.60
2018-09-17T03:34:14.190Z,68.40
2018-09-17T03:36:42.871Z,68.60
2018-09-17T03:39:11.452Z,68.20
2018-09-17T03:41:39.995Z,68.70
2018-09-17T03:44:08.559Z,68.90
2018-09-17T03:46:37.275Z,69.30
2018-09-17T03:49:05.893Z,70.10
2018-09-17T03:51:36.529Z,69.20
2018-09-17T03:54:05.516Z,69.50
2018-09-17T03:56:34.024Z,70.60
2018-09-17T03:59:02.520Z,70.10
2018-09-17T04:01:32.360Z,69.40
2018-09-17T04:04:01.079Z,69.00
2018-09-17T04:06:29.709Z,68.90
2018-09-17T04:08:58.274Z,69.50
2018-09-17T04:11:26.959Z,69.10
2018-09-17T04:13:55.692Z,68.90
2018-09-17T04:16:25.474Z,69.30
2018-09-17T04:18:54.129Z,69.30
2018-09-17T04:21:22.596Z,69.60
2018-09-17T04:23:51.090Z,69.40
2018-09-17T04:26:19.543Z,68.50
2018-09-17T04:28:48.404Z,68.90
2018-09-17T04:31:16.911Z,69.10
2018-09-17T04:33:45.591Z,69.50
2018-09-17T04:36:14.452Z,70.20
2018-09-17T04:38:43.557Z,70.00
2018-09-17T04:41:12.042Z,70.60
2018-09-17T04:43:40.629Z,70.80
2018-09-17T04:46:09.144Z,70.70
2018-09-17T04:48:37.812Z,70.00
2018-09-17T04:51:06.450Z,70.40
2018-09-17T04:53:35.045Z,70.90
2018-09-17T04:56:03.966Z,70.60
2018-09-17T04:58:32.513Z,71.50
2018-09-17T05:01:01.072Z,71.10
2018-09-17T05:03:30.853Z,71.60
2018-09-17T05:06:00.759Z,71.20
2018-09-17T05:08:29.549Z,71.40
2018-09-17T05:10:57.996Z,72.20
2018-09-17T05:13:26.642Z,72.60
2018-09-17T05:15:55.202Z,73.00
2018-09-17T05:18:23.659Z,72.80
2018-09-17T05:20:52.268Z,72.80
2018-09-17T05:23:20.817Z,74.30
2018-09-17T05:25:49.420Z,74.20
2018-09-17T05:28:17.956Z,73.30
2018-09-17T05:30:47.219Z,73.30
2018-09-17T05:33:16.028Z,73.80
2018-09-17T05:35:44.469Z,74.30
2018-09-17T05:38:13.150Z,73.00
2018-09-17T05:40:41.778Z,72.90
2018-09-17T05:43:10.362Z,72.70
2018-09-17T05:45:38.911Z,72.80
2018-09-17T05:48:07.477Z,73.00
2018-09-17T05:50:36.128Z,73.40
2018-09-17T05:53:04.666Z,73.20
2018-09-17T05:55:33.401Z,73.40
2018-09-17T05:58:02.233Z,73.50
2018-09-17T06:00:31.128Z,73.70
2018-09-17T06:03:00.217Z,73.50
2018-09-17T06:05:29.283Z,74.20
2018-09-17T06:07:58.216Z,73.10
2018-09-17T06:10:26.768Z,73.70
2018-09-17T06:12:55.481Z,73.30
2018-09-17T06:15:23.955Z,73.70
2018-09-17T06:17:52.639Z,72.80
2018-09-17T06:20:21.370Z,73.40
2018-09-17T06:22:49.880Z,73.70
2018-09-17T06:25:18.427Z,73.10
2018-09-17T06:27:48.084Z,72.70
2018-09-17T06:30:16.977Z,73.20
2018-09-17T06:32:46.078Z,73.50
2018-09-17T06:35:14.627Z,73.10
2018-09-17T06:37:43.237Z,73.40
2018-09-17T06:40:11.778Z,72.90
2018-09-17T06:42:40.697Z,72.60
2018-09-17T06:45:09.355Z,73.00
2018-09-17T06:47:37.819Z,73.50
2018-09-17T06:50:06.474Z,72.70
2018-09-17T06:52:35.162Z,73.50
2018-09-17T06:55:03.792Z,73.00
2018-09-17T06:57:32.348Z,73.50
2018-09-17T07:00:00.982Z,72.90
2018-09-17T07:09:54.495Z,72.00
2018-09-17T07:12:23.041Z,72.40
2018-09-17T07:14:51.562Z,72.90
2018-09-17T07:17:20.134Z,72.30
2018-09-17T07:22:48.468Z,71.80
2018-09-17T07:25:16.935Z,70.80
2018-09-17T07:27:45.935Z,70.30
2018-09-17T07:30:14.621Z,70.00
2018-09-17T07:32:43.252Z,70.00
2018-09-17T07:35:17.414Z,69.60
2018-09-17T07:37:46.377Z,69.30
2018-09-17T07:40:14.920Z,69.30
2018-09-17T07:42:43.354Z,69.40
2018-09-17T07:45:11.861Z,69.30
2018-09-17T07:47:42.841Z,68.70
2018-09-17T07:50:16.165Z,68.40
2018-09-17T07:52:44.794Z,68.20
2018-09-17T07:55:13.554Z,67.40
2018-09-17T07:57:42.054Z,67.00
2018-09-17T08:00:10.558Z,66.20
2018-09-17T08:02:39.278Z,65.60
2018-09-17T08:05:07.950Z,66.00
2018-09-17T08:07:36.558Z,66.20
2018-09-17T08:10:05.061Z,65.90
2018-09-17T08:12:33.508Z,66.10
2018-09-17T08:15:01.962Z,66.10
2018-09-17T08:17:30.389Z,65.90
2018-09-17T08:19:58.896Z,66.20
2018-09-17T08:22:27.431Z,65.40
2018-09-17T08:24:55.903Z,64.40
2018-09-17T08:27:24.408Z,64.60
2018-09-17T08:29:53.067Z,63.90
2018-09-17T08:32:21.655Z,63.00
2018-09-17T08:34:50.248Z,63.00
2018-09-17T08:37:18.825Z,63.80
2018-09-17T08:39:48.431Z,63.20
2018-09-17T08:42:17.094Z,63.70
2018-09-17T08:44:45.873Z,63.10
2018-09-17T08:47:14.474Z,63.30
2018-09-17T08:49:43.013Z,63.30
2018-09-17T08:52:11.797Z,63.10
2018-09-17T08:54:45.943Z,62.50
2018-09-17T08:57:20.074Z,61.60
2018-09-17T08:59:53.985Z,60.80
2018-09-17T09:02:27.897Z,60.80
2018-09-17T09:05:01.048Z,60.60
2018-09-17T09:07:35.712Z,60.10
2018-09-17T09:10:10.533Z,60.10
2018-09-17T09:12:39.286Z,58.90
2018-09-17T09:15:28.142Z,59.00
2018-09-17T09:17:56.951Z,58.80
2018-09-17T09:20:25.632Z,57.50
2018-09-17T09:22:54.156Z,60.00
2018-09-17T09:25:23.678Z,59.40
2018-09-17T09:27:52.237Z,59.60
2018-09-17T09:30:21.190Z,58.30
2018-09-17T09:32:49.769Z,59.00
2018-09-17T09:35:18.261Z,59.30
2018-09-17T09:37:46.969Z,58.30
2018-09-17T09:40:15.696Z,57.60
2018-09-17T09:42:45.060Z,57.00
2018-09-17T09:45:14.342Z,57.30
2018-09-17T09:47:42.852Z,56.60
2018-09-17T09:50:11.442Z,55.90
2018-09-17T09:52:40.017Z,56.80
2018-09-17T09:55:08.803Z,57.70
2018-09-17T09:57:37.301Z,56.90
2018-09-17T10:00:11.633Z,56.70
2018-09-17T10:02:46.025Z,56.50
2018-09-17T10:05:15.186Z,56.50
2018-09-17T10:07:43.930Z,57.40
2018-09-17T10:10:18.132Z,55.80
2018-09-17T10:12:52.108Z,55.60
2018-09-17T10:15:57.761Z,54.20
2018-09-17T10:18:32.331Z,54.50
2018-09-17T10:21:01.023Z,54.50
2018-09-17T10:23:29.527Z,51.80
2018-09-17T10:25:58.146Z,52.70
2018-09-17T10:28:27.061Z,52.90
2018-09-17T10:30:59.014Z,51.40
2018-09-17T10:33:31.378Z,50.00
2018-09-17T10:35:59.985Z,50.20
2018-09-17T10:38:28.772Z,47.00
2018-09-17T10:40:57.245Z,48.80
2018-09-17T10:43:40.533Z,47.50
2018-09-17T10:46:09.178Z,44.90
2018-09-17T10:48:37.813Z,46.40
2018-09-17T10:51:06.523Z,47.50
2018-09-17T10:53:35.295Z,49.20
2018-09-17T10:56:07.513Z,49.00
2018-09-17T10:58:36.043Z,45.50
2018-09-17T11:01:04.662Z,44.20
2018-09-17T11:03:39.128Z,43.10
2018-09-17T11:06:07.733Z,36.70
2018-09-17T11:08:36.620Z,37.70
2018-09-17T11:11:05.318Z,36.30
2018-09-17T11:13:33.947Z,37.10
2018-09-17T11:16:02.429Z,35.20
2018-09-17T11:18:31.748Z,35.50
2018-09-17T11:21:00.648Z,37.90
2018-09-17T11:23:29.636Z,36.20
2018-09-17T11:25:58.647Z,35.60
2018-09-17T11:28:27.307Z,36.50
2018-09-17T11:30:55.924Z,32.80
2018-09-17T11:33:24.845Z,30.60
2018-09-17T11:35:53.582Z,33.00
2018-09-17T11:38:22.367Z,30.90
2018-09-17T11:40:51.048Z,30.50
2018-09-17T11:43:19.683Z,30.20
2018-09-17T11:45:48.259Z,29.40
2018-09-17T11:48:17.204Z,28.50
2018-09-17T11:50:45.923Z,27.40
2018-09-17T11:53:14.844Z,25.40
2018-09-17T11:55:43.462Z,26.00
2018-09-17T11:58:12.450Z,25.50
2018-09-17T12:00:46.246Z,25.10
2018-09-17T12:06:01.974Z,24.00
2018-09-17T12:08:30.409Z,24.80
2018-09-17T12:10:58.834Z,24.90
2018-09-17T12:13:27.312Z,24.30
2018-09-17T12:15:55.726Z,21.70
2018-09-17T12:18:24.267Z,22.30
2018-09-17T12:20:52.607Z,21.60
2018-09-17T12:23:21.045Z,21.70
2018-09-17T12:25:49.492Z,20.80
2018-09-17T12:28:17.928Z,20.00
2018-09-17T12:30:46.604Z,19.70
2018-09-17T12:33:14.960Z,18.70
2018-09-17T12:35:43.388Z,18.60
2018-09-17T12:38:12.041Z,18.50
2018-09-17T12:40:40.500Z,18.30
2018-09-17T12:43:09.015Z,17.60
2018-09-17T12:45:37.624Z,16.80
2018-09-17T12:48:06.488Z,16.60
2018-09-17T12:50:36.058Z,16.60
2018-09-17T12:53:04.666Z,16.80
2018-09-17T12:55:33.051Z,16.50
2018-09-17T12:58:01.511Z,16.50
2018-09-17T13:00:29.900Z,16.40
2018-09-17T13:02:58.822Z,16.00
2018-09-17T13:05:29.023Z,15.30
2018-09-17T13:07:57.974Z,15.40
2018-09-17T13:10:30.774Z,14.50
2018-09-17T13:13:00.326Z,14.90
2018-09-17T13:15:29.713Z,14.90
2018-09-17T13:18:02.574Z,14.80
2018-09-17T13:20:31.964Z,15.00
2018-09-17T13:23:00.866Z,15.00
2018-09-17T13:25:29.258Z,15.20
2018-09-17T13:27:57.729Z,15.50
2018-09-17T13:30:26.204Z,15.20
2018-09-17T13:32:54.753Z,15.50
2018-09-17T13:35:23.531Z,15.80
2018-09-17T13:37:52.075Z,15.50
2018-09-17T13:40:21.115Z,14.80
2018-09-17T13:42:49.704Z,14.90
2018-09-17T13:45:18.129Z,15.00
2018-09-17T13:47:48.399Z,14.70
2018-09-17T13:50:17.342Z,14.90
2018-09-17T13:52:50.483Z,14.60
2018-09-17T13:55:19.430Z,14.50
2018-09-17T13:57:48.499Z,14.60
2018-09-17T14:00:18.157Z,14.20
2018-09-17T14:02:46.997Z,13.90
2018-09-17T14:05:15.617Z,13.40
2018-09-17T14:07:44.154Z,13.50
2018-09-17T14:10:13.359Z,13.20
2018-09-17T14:12:42.228Z,13.60
2018-09-17T14:15:10.985Z,13.60
2018-09-17T14:17:39.566Z,13.60
2018-09-17T14:20:08.078Z,13.80
2018-09-17T14:22:36.812Z,13.80
2018-09-17T14:25:05.984Z,14.00
2018-09-17T14:27:35.293Z,13.60
2018-09-17T14:30:03.977Z,13.60
2018-09-17T14:32:38.744Z,13.30
2018-09-17T14:35:07.263Z,13.10
2018-09-17T14:37:36.341Z,13.00
2018-09-17T14:40:04.855Z,13.10
2018-09-17T14:42:33.520Z,13.20
2018-09-17T14:45:02.109Z,13.00
2018-09-17T14:47:30.513Z,13.10
2018-09-17T14:49:58.953Z,13.30
2018-09-17T14:52:27.424Z,13.30
2018-09-17T14:54:55.754Z,13.40
2018-09-17T14:57:25.039Z,13.50
2018-09-17T14:59:53.462Z,13.60
2018-09-17T15:02:22.119Z,13.60
2018-09-17T15:04:50.506Z,13.70
2018-09-17T15:07:19.335Z,13.50
2018-09-17T15:09:48.004Z,13.50
2018-09-17T15:12:16.392Z,13.70
2018-09-17T15:17:13.190Z,13.60
2018-09-17T15:19:41.739Z,14.10
2018-09-17T15:22:10.165Z,14.10
2018-09-17T15:24:38.503Z,14.10
2018-09-17T15:27:06.945Z,14.10
2018-09-17T15:29:35.393Z,14.40
2018-09-17T15:32:04.157Z,14.30
2018-09-17T15:34:32.777Z,14.40
2018-09-17T15:37:01.400Z,14.60
2018-09-17T15:39:29.803Z,15.10
2018-09-17T15:41:58.191Z,15.90
2018-09-17T15:44:26.756Z,16.80
2018-09-17T15:46:55.237Z,17.50
2018-09-17T15:49:23.843Z,18.30
2018-09-17T15:51:52.340Z,20.40
2018-09-17T15:54:20.767Z,19.40
2018-09-17T15:56:49.304Z,20.20
2018-09-17T15:59:17.920Z,20.80
2018-09-17T16:01:46.407Z,21.50
2018-09-17T16:04:14.907Z,21.40
2018-09-17T16:06:43.622Z,22.50
2018-09-17T16:09:13.156Z,22.70
2018-09-17T16:11:43.288Z,22.90
2018-09-17T16:14:12.237Z,23.00
2018-09-17T16:16:40.784Z,23.10
2018-09-17T16:19:09.600Z,23.00
2018-09-17T16:21:38.417Z,23.70
2018-09-17T16:24:07.151Z,23.30
2018-09-17T16:26:35.910Z,23.80
2018-09-17T16:29:04.803Z,24.20
2018-09-17T16:31:33.560Z,24.80
2018-09-17T16:34:02.524Z,24.40
2018-09-17T16:36:31.340Z,24.60
2018-09-17T16:39:00.014Z,25.10
2018-09-17T16:41:29.047Z,26.30
2018-09-17T16:43:57.804Z,25.50
2018-09-17T16:46:26.487Z,25.90
2018-09-17T16:48:55.142Z,26.00
2018-09-17T16:51:24.417Z,26.50
2018-09-17T16:53:53.137Z,26.30
2018-09-17T16:56:21.942Z,26.60
2018-09-17T16:58:50.774Z,27.40
2018-09-17T17:01:19.398Z,27.80
2018-09-17T17:03:48.065Z,27.50
2018-09-17T17:06:17.004Z,27.80
2018-09-17T17:08:45.855Z,28.40
2018-09-17T17:11:14.497Z,27.90
2018-09-17T17:13:44.026Z,27.70
2018-09-17T17:16:12.767Z,28.10
2018-09-17T17:18:41.494Z,27.80
2018-09-17T17:21:10.265Z,28.50
2018-09-17T17:23:38.859Z,28.60
2018-09-17T17:26:07.965Z,28.30
2018-09-17T17:28:36.862Z,28.20
2018-09-17T17:31:15.467Z,29.20
2018-09-17T17:34:03.707Z,27.90
2018-09-17T17:36:36.987Z,29.60
2018-09-17T17:39:08.099Z,30.30
2018-09-17T17:41:37.261Z,31.10
2018-09-17T17:44:06.330Z,30.30
2018-09-17T17:46:34.943Z,30.30
2018-09-17T17:49:04.977Z,31.90
2018-09-17T17:51:33.569Z,30.90
2018-09-17T17:54:02.267Z,32.30
2018-09-17T17:56:30.965Z,32.90
2018-09-17T17:58:59.609Z,31.20
2018-09-17T18:01:28.808Z,33.20
2018-09-17T18:03:57.461Z,33.50
2018-09-17T18:06:25.925Z,34.20
2018-09-17T18:09:03.821Z,33.90
2018-09-17T18:11:32.865Z,32.90
2018-09-17T18:14:01.499Z,33.10
2018-09-17T18:16:30.307Z,33.40
2018-09-17T18:19:00.339Z,34.60
2018-09-17T18:21:29.463Z,34.70
2018-09-17T18:23:58.160Z,35.10
2018-09-17T18:26:27.417Z,34.40
2018-09-17T18:28:57.873Z,35.10
2018-09-17T18:31:26.298Z,35.40
2018-09-17T18:33:55.489Z,35.20
2018-09-17T18:36:24.384Z,34.60
2018-09-17T18:38:55.992Z,35.60
2018-09-17T18:41:24.664Z,36.20
2018-09-17T18:43:53.440Z,35.70
2018-09-17T18:46:22.420Z,36.40
2018-09-17T18:48:52.009Z,36.10
2018-09-17T18:51:20.672Z,36.00
2018-09-17T18:53:49.349Z,36.80
2018-09-17T18:56:17.983Z,36.10
2018-09-17T18:58:47.013Z,36.90
2018-09-17T19:01:15.750Z,36.60
2018-09-17T19:03:44.965Z,37.00
2018-09-17T19:06:13.481Z,37.20
2018-09-17T19:08:42.196Z,37.90
2018-09-17T19:11:14.249Z,37.90
2018-09-17T19:13:47.716Z,38.40
2018-09-17T19:16:20.921Z,38.70
2018-09-17T19:18:49.891Z,39.70
2018-09-17T19:21:18.699Z,39.70
2018-09-17T19:23:52.718Z,40.20
2018-09-17T19:26:21.356Z,39.80
2018-09-17T19:28:55.169Z,40.10
2018-09-17T19:31:23.779Z,40.10
2018-09-17T19:33:52.801Z,40.20
2018-09-17T19:36:21.452Z,40.20
2018-09-17T19:38:55.334Z,40.90
2018-09-17T19:41:24.465Z,40.80
2018-09-17T19:43:53.182Z,40.80
2018-09-17T19:46:22.414Z,41.10
2018-09-17T19:48:51.478Z,41.30
2018-09-17T19:51:26.321Z,41.60
2018-09-17T19:53:55.080Z,41.70
2018-09-17T19:56:23.986Z,42.50
2018-09-17T19:58:58.262Z,41.90
2018-09-17T20:01:27.148Z,42.10
2018-09-17T20:03:55.847Z,42.20
2018-09-17T20:06:26.150Z,43.00
2018-09-17T20:08:54.881Z,43.30
2018-09-17T20:11:23.407Z,43.80
2018-09-17T20:13:51.943Z,43.70
2018-09-17T20:16:20.418Z,43.10
2018-09-17T20:18:49.004Z,43.70
2018-09-17T20:21:17.552Z,44.00
2018-09-17T20:23:46.444Z,44.20
2018-09-17T20:26:14.929Z,44.40
2018-09-17T20:28:43.503Z,44.30
2018-09-17T20:31:12.085Z,44.60
2018-09-17T20:33:40.911Z,44.50
2018-09-17T20:36:09.382Z,46.10
2018-09-17T20:38:37.826Z,45.00
2018-09-17T20:41:11.825Z,45.20
2018-09-17T20:43:40.389Z,46.00
2018-09-17T20:46:09.408Z,45.40
2018-09-17T20:48:38.148Z,45.90
2018-09-17T20:51:07.568Z,46.10
2018-09-17T20:53:36.245Z,46.70
2018-09-17T20:56:04.847Z,46.30
2018-09-17T20:58:33.612Z,46.20
2018-09-17T21:01:02.485Z,45.70
2018-09-17T21:03:31.051Z,46.20
2018-09-17T21:05:59.622Z,45.00
2018-09-17T21:08:28.203Z,45.50
2018-09-17T21:10:58.027Z,45.90
2018-09-17T21:13:26.721Z,45.60
2018-09-17T21:15:55.252Z,46.30
2018-09-17T21:18:23.813Z,46.70
2018-09-17T21:20:52.191Z,47.70
2018-09-17T21:23:20.849Z,48.00
2018-09-17T21:25:49.452Z,47.70
2018-09-17T21:28:17.866Z,47.10
2018-09-17T21:30:46.304Z,47.10
2018-09-17T21:33:14.708Z,48.60
2018-09-17T21:36:02.748Z,48.30
2018-09-17T21:38:39.763Z,48.30
2018-09-17T21:41:08.263Z,49.50
2018-09-17T21:43:36.721Z,49.30
2018-09-17T21:46:05.210Z,49.70
2018-09-17T21:48:33.605Z,49.70
2018-09-17T21:51:02.072Z,50.70
2018-09-17T21:53:30.510Z,49.90
2018-09-17T21:55:59.084Z,50.40
2018-09-17T21:58:27.743Z,49.70
2018-09-17T22:01:00.898Z,50.00
2018-09-17T22:03:30.301Z,49.80
2018-09-17T22:05:59.336Z,50.40
2018-09-17T22:08:28.011Z,49.00
2018-09-17T22:10:56.496Z,49.20
2018-09-17T22:13:25.130Z,50.00
2018-09-17T22:15:54.196Z,49.40
2018-09-17T22:18:23.383Z,49.30
2018-09-17T22:20:51.826Z,50.00
2018-09-17T22:23:20.327Z,49.10
2018-09-17T22:25:48.770Z,49.20
2018-09-17T22:28:17.430Z,50.30
2018-09-17T22:30:46.366Z,50.30
2018-09-17T22:33:14.883Z,50.50
2018-09-17T22:35:43.403Z,49.30
2018-09-17T22:38:11.903Z,49.80
2018-09-17T22:40:40.813Z,50.10
2018-09-17T22:43:09.382Z,49.50
2018-09-17T22:45:37.959Z,50.10
2018-09-17T22:48:06.506Z,50.00
2018-09-17T22:50:34.951Z,50.10
2018-09-17T22:53:04.152Z,50.10
2018-09-17T22:55:32.662Z,49.80
2018-09-17T22:58:01.235Z,50.00
2018-09-17T23:00:29.790Z,50.50
2018-09-17T23:02:58.233Z,50.30
2018-09-17T23:05:26.793Z,49.90
2018-09-17T23:07:55.377Z,49.40
2018-09-17T23:10:23.770Z,49.40
2018-09-17T23:12:52.309Z,49.60
2018-09-17T23:15:20.766Z,49.40
2018-09-17T23:17:49.543Z,49.40
2018-09-17T23:22:46.119Z,49.60
2018-09-17T23:25:14.734Z,48.80
2018-09-17T23:27:43.201Z,49.40
2018-09-17T23:30:11.753Z,49.00
2018-09-17T23:32:40.362Z,49.00
2018-09-17T23:35:08.880Z,48.70
2018-09-17T23:37:37.396Z,48.80
2018-09-17T23:40:06.273Z,49.00
2018-09-17T23:42:34.840Z,48.90
2018-09-17T23:45:03.375Z,49.20
2018-09-17T23:47:31.996Z,48.70
2018-09-17T23:50:00.499Z,49.10
2018-09-17T23:52:29.477Z,48.90
2018-09-17T23:54:58.159Z,48.80
2018-09-17T23:57:26.615Z,48.50
2018-09-17T23:59:55.141Z,48.70
